Terminal Aerodrome Forecast
Issued by NWS

Home | Current Version | Previous Version | Text Only | Print | Product List | Glossary On
Versions: 1 2 3 4 5 6 7 8 9 10 11 12 13 14 15
000
FTUS41 KCAR 261720
TAFPQI
TAF
KPQI 261720Z 2618/2718 28016G29KT P6SM SCT045
     FM262300 27012G20KT P6SM FEW040
     FM270500 28006KT P6SM SCT040
     FM271500 30007G13KT P6SM SCT045 BKN200
      AMD LTD TO CLD VIS AND WIND=

USA.gov is the U.S. government's official web portal to all federal, state and local government web resources and services.